createdAt,value
2022-08-12T00:00:52.642Z,101687.22
2022-08-12T00:03:38.230Z,101682.72
2022-08-12T00:06:24.256Z,101678.31
2022-08-12T00:09:10.166Z,101678.63
2022-08-12T00:11:57.315Z,101678.94
2022-08-12T00:14:42.524Z,101683.72
2022-08-12T00:17:27.817Z,101672.09
2022-08-12T00:20:13.292Z,101682.25
2022-08-12T00:22:59.207Z,101673.41
2022-08-12T00:26:21.695Z,101677.00
2022-08-12T00:29:02.297Z,101676.25
2022-08-12T00:31:48.142Z,101681.78
2022-08-12T00:34:33.831Z,101685.56
2022-08-12T00:37:19.305Z,101680.25
2022-08-12T00:40:10.758Z,101678.56
2022-08-12T00:42:40.880Z,101679.66
2022-08-12T00:45:11.411Z,101675.16
2022-08-12T00:47:39.963Z,101679.00
2022-08-12T00:50:17.633Z,101678.19
2022-08-12T00:52:46.310Z,101680.16
2022-08-12T00:55:14.692Z,101684.88
2022-08-12T00:57:48.553Z,101685.13
2022-08-12T01:00:21.536Z,101684.47
2022-08-12T01:02:52.595Z,101680.19
2022-08-12T01:05:40.342Z,101682.91
2022-08-12T01:08:26.109Z,101685.91
2022-08-12T01:11:13.686Z,101693.34
2022-08-12T01:13:43.017Z,101698.94
2022-08-12T01:16:12.383Z,101690.97
2022-08-12T01:18:41.643Z,101689.41
2022-08-12T01:21:16.646Z,101695.03
2022-08-12T01:23:58.207Z,101691.44
2022-08-12T01:26:27.569Z,101692.53
2022-08-12T01:28:58.894Z,101686.44
2022-08-12T01:31:29.950Z,101696.69
2022-08-12T01:34:06.488Z,101687.69
2022-08-12T01:36:57.705Z,101681.44
2022-08-12T01:39:30.664Z,101694.25
2022-08-12T01:42:05.257Z,101683.53
2022-08-12T01:44:35.173Z,101683.78
2022-08-12T01:47:19.188Z,101683.03
2022-08-12T01:50:05.452Z,101683.22
2022-08-12T01:52:43.407Z,101688.72
2022-08-12T01:55:12.412Z,101687.03
2022-08-12T01:57:57.880Z,101688.88
2022-08-12T02:00:43.385Z,101688.22
2022-08-12T02:03:23.759Z,101684.72
2022-08-12T02:06:18.035Z,101689.34
2022-08-12T02:09:06.475Z,101688.78
2022-08-12T02:11:36.802Z,101685.34
2022-08-12T02:14:32.319Z,101694.66
2022-08-12T02:17:10.534Z,101692.06
2022-08-12T02:20:01.946Z,101690.41
2022-08-12T02:22:32.095Z,101693.19
2022-08-12T02:25:08.421Z,101690.47
2022-08-12T02:27:40.688Z,101693.25
2022-08-12T02:30:11.460Z,101700.53
2022-08-12T02:32:41.775Z,101693.53
2022-08-12T02:35:14.893Z,101697.25
2022-08-12T02:37:45.472Z,101688.44
2022-08-12T02:40:15.047Z,101691.16
2022-08-12T02:42:51.194Z,101693.19
2022-08-12T02:45:28.344Z,101692.47
2022-08-12T02:48:02.115Z,101693.44
2022-08-12T02:50:34.968Z,101701.78
2022-08-12T02:53:04.817Z,101704.69
2022-08-12T02:55:36.550Z,101702.25
2022-08-12T02:58:12.098Z,101701.50
2022-08-12T03:00:44.515Z,101706.09
2022-08-12T03:03:14.647Z,101702.50
2022-08-12T03:05:49.710Z,101703.50
2022-08-12T03:08:32.553Z,101699.84
2022-08-12T03:11:11.996Z,101707.13
2022-08-12T03:13:49.598Z,101702.56
2022-08-12T03:16:19.478Z,101702.69
2022-08-12T03:18:49.614Z,101701.78
2022-08-12T03:22:03.807Z,101696.53
2022-08-12T03:24:08.753Z,101697.53
2022-08-12T03:26:37.782Z,101699.50
2022-08-12T03:29:07.185Z,101708.78
2022-08-12T03:31:36.385Z,101706.56
2022-08-12T03:34:07.508Z,101702.03
2022-08-12T03:36:39.082Z,101698.59
2022-08-12T03:39:23.565Z,101698.72
2022-08-12T03:42:14.347Z,101703.25
2022-08-12T03:45:11.382Z,101705.06
2022-08-12T03:48:05.580Z,101709.81
2022-08-12T03:50:51.056Z,101701.75
2022-08-12T03:53:45.483Z,101704.69
2022-08-12T03:56:31.093Z,101702.94
2022-08-12T03:59:17.630Z,101702.28
2022-08-12T04:01:52.393Z,101704.31
2022-08-12T04:04:23.537Z,101701.94
2022-08-12T04:06:51.794Z,101695.84
2022-08-12T04:09:21.557Z,101697.56
2022-08-12T04:12:07.576Z,101700.28
2022-08-12T04:14:35.999Z,101698.44
2022-08-12T04:17:05.351Z,101704.69
2022-08-12T04:19:34.554Z,101710.28
2022-08-12T04:22:03.704Z,101711.25
2022-08-12T04:24:34.973Z,101706.91
2022-08-12T04:27:05.080Z,101712.59
2022-08-12T04:30:29.581Z,101704.66
2022-08-12T04:32:22.186Z,101708.16
2022-08-12T04:34:51.892Z,101712.53
2022-08-12T04:37:22.454Z,101713.38
2022-08-12T04:39:50.913Z,101711.44
2022-08-12T04:42:20.103Z,101716.91
2022-08-12T04:44:48.412Z,101713.38
2022-08-12T04:47:17.968Z,101710.56
2022-08-12T04:49:48.120Z,101712.47
2022-08-12T04:52:18.508Z,101705.06
2022-08-12T04:54:47.511Z,101708.72
2022-08-12T04:57:16.032Z,101701.50
2022-08-12T04:59:47.850Z,101704.09
2022-08-12T05:02:20.454Z,101714.84
2022-08-12T05:04:50.729Z,101704.81
2022-08-12T05:07:20.179Z,101705.53
2022-08-12T05:09:59.469Z,101694.56
2022-08-12T05:12:33.907Z,101704.50
2022-08-12T05:15:01.707Z,101702.53
2022-08-12T05:17:29.731Z,101700.56
2022-08-12T05:19:58.158Z,101703.09
2022-08-12T05:22:27.841Z,101705.75
2022-08-12T05:24:55.939Z,101710.19
2022-08-12T05:27:23.754Z,101703.66
2022-08-12T05:30:06.758Z,101704.38
2022-08-12T05:32:37.550Z,101701.25
2022-08-12T05:35:08.096Z,101709.13
2022-08-12T05:37:37.291Z,101705.13
2022-08-12T05:40:10.849Z,101700.31
2022-08-12T05:42:39.273Z,101709.06
2022-08-12T05:45:08.575Z,101710.59
2022-08-12T05:47:42.541Z,101710.34
2022-08-12T05:50:22.171Z,101706.47
2022-08-12T05:52:53.031Z,101712.53
2022-08-12T05:55:24.161Z,101716.81
2022-08-12T05:57:55.319Z,101718.28
2022-08-12T06:00:25.481Z,101712.63
2022-08-12T06:03:01.364Z,101720.38
2022-08-12T06:05:29.529Z,101721.03
2022-08-12T06:08:02.512Z,101716.19
2022-08-12T06:10:32.933Z,101722.16
2022-08-12T06:13:02.548Z,101719.94
2022-08-12T06:15:32.179Z,101721.44
2022-08-12T06:18:13.152Z,101720.16
2022-08-12T06:20:43.842Z,101719.06
2022-08-12T06:23:16.587Z,101722.28
2022-08-12T06:25:46.511Z,101711.94
2022-08-12T06:28:17.598Z,101711.53
2022-08-12T06:30:57.296Z,101715.81
2022-08-12T06:33:56.029Z,101720.78
2022-08-12T06:36:24.998Z,101713.97
2022-08-12T06:38:59.473Z,101703.63
2022-08-12T06:42:30.637Z,101701.34
2022-08-12T06:44:41.034Z,101705.22
2022-08-12T06:47:08.796Z,101703.03
2022-08-12T06:49:36.907Z,101695.31
2022-08-12T06:52:07.378Z,101697.56
2022-08-12T06:54:36.592Z,101694.38
2022-08-12T06:58:05.419Z,101700.28
2022-08-12T06:59:52.519Z,101696.97
2022-08-12T07:02:22.780Z,101700.06
2022-08-12T07:04:52.584Z,101695.03
2022-08-12T07:07:20.466Z,101698.91
2022-08-12T07:10:03.964Z,101695.75
2022-08-12T07:12:36.828Z,101695.22
2022-08-12T07:15:05.346Z,101702.91
2022-08-12T07:17:37.806Z,101704.16
2022-08-12T07:20:10.033Z,101701.78
2022-08-12T07:22:39.069Z,101705.94
2022-08-12T07:25:26.812Z,101705.50
2022-08-12T07:27:55.164Z,101705.91
2022-08-12T07:30:24.016Z,101712.72
2022-08-12T07:32:52.259Z,101709.63
2022-08-12T07:35:20.511Z,101706.41
2022-08-12T07:37:50.454Z,101712.31
2022-08-12T07:40:21.084Z,101708.25
2022-08-12T07:42:49.607Z,101713.09
2022-08-12T07:45:18.097Z,101702.63
2022-08-12T07:47:45.902Z,101715.75
2022-08-12T07:50:18.880Z,101710.63
2022-08-12T07:52:49.502Z,101710.13
2022-08-12T07:55:19.579Z,101707.66
2022-08-12T07:57:53.316Z,101711.63
2022-08-12T08:00:21.291Z,101703.75
2022-08-12T08:02:54.207Z,101706.91
2022-08-12T08:05:23.787Z,101708.38
2022-08-12T08:07:53.274Z,101711.66
2022-08-12T08:10:22.564Z,101712.94
2022-08-12T08:12:56.034Z,101711.59
2022-08-12T08:15:44.648Z,101715.63
2022-08-12T08:18:26.620Z,101702.44
2022-08-12T08:20:57.282Z,101701.13
2022-08-12T08:23:55.791Z,101710.81
2022-08-12T08:26:27.131Z,101714.66
2022-08-12T08:28:55.050Z,101707.59
2022-08-12T08:31:22.805Z,101713.59
2022-08-12T08:34:09.117Z,101699.38
2022-08-12T08:36:40.363Z,101712.88
2022-08-12T08:39:11.604Z,101708.00
2022-08-12T08:42:17.444Z,101711.25
2022-08-12T08:44:46.785Z,101708.94
2022-08-12T08:47:17.542Z,101711.16
2022-08-12T08:49:45.626Z,101706.16
2022-08-12T08:52:13.391Z,101704.78
2022-08-12T08:55:01.164Z,101704.16
2022-08-12T08:57:43.600Z,101709.13
2022-08-12T09:00:19.689Z,101707.81
2022-08-12T09:02:58.778Z,101701.84
2022-08-12T09:05:27.944Z,101712.19
2022-08-12T09:08:12.184Z,101706.34
2022-08-12T09:10:55.229Z,101711.31
2022-08-12T09:14:11.167Z,101712.75
2022-08-12T09:16:23.156Z,101702.22
2022-08-12T09:18:52.493Z,101701.69
2022-08-12T09:21:20.665Z,101701.16
2022-08-12T09:23:59.414Z,101703.50
2022-08-12T09:26:45.803Z,101697.19
2022-08-12T09:29:15.939Z,101685.88
2022-08-12T09:32:04.137Z,101690.41
2022-08-12T09:34:34.082Z,101695.53
2022-08-12T09:37:19.353Z,101689.81
2022-08-12T09:40:04.553Z,101694.75
2022-08-12T09:43:16.153Z,101691.66
2022-08-12T09:46:06.718Z,101689.72
2022-08-12T09:48:35.119Z,101680.25
2022-08-12T09:51:04.892Z,101679.91
2022-08-12T09:53:45.795Z,101679.34
2022-08-12T09:56:58.682Z,101679.78
2022-08-12T10:00:17.092Z,101681.09
2022-08-12T10:02:45.637Z,101670.66
2022-08-12T10:05:00.471Z,101665.59
2022-08-12T10:07:37.652Z,101668.34
2022-08-12T10:10:22.969Z,101663.75
2022-08-12T10:13:12.884Z,101658.63
2022-08-12T10:16:01.512Z,101659.19
2022-08-12T10:18:35.831Z,101658.59
2022-08-12T10:21:07.474Z,101651.88
2022-08-12T10:23:39.772Z,101648.78
2022-08-12T10:26:37.054Z,101647.97
2022-08-12T10:30:11.878Z,101637.72
2022-08-12T10:32:22.108Z,101631.47
2022-08-12T10:34:53.366Z,101635.06
2022-08-12T10:37:23.681Z,101626.38
2022-08-12T10:40:20.531Z,101615.13
2022-08-12T10:43:03.638Z,101612.25
2022-08-12T10:45:31.896Z,101608.91
2022-08-12T10:48:19.150Z,101612.09
2022-08-12T10:51:00.458Z,101611.59
2022-08-12T10:53:45.195Z,101607.63
2022-08-12T10:56:15.335Z,101596.59
2022-08-12T10:58:46.028Z,101592.47
2022-08-12T11:01:49.822Z,101587.25
2022-08-12T11:04:22.741Z,101591.53
2022-08-12T11:07:07.998Z,101585.78
2022-08-12T11:10:00.752Z,101577.78
2022-08-12T11:12:56.633Z,101578.88
2022-08-12T11:15:24.414Z,101570.00
2022-08-12T11:18:12.233Z,101579.69
2022-08-12T11:20:48.043Z,101568.16
2022-08-12T11:23:24.981Z,101560.78
2022-08-12T11:26:06.824Z,101569.78
2022-08-12T11:28:36.978Z,101554.91
2022-08-12T11:31:14.118Z,101566.31
2022-08-12T11:34:05.749Z,101566.53
2022-08-12T11:36:30.943Z,101557.16
2022-08-12T11:39:04.502Z,101564.81
2022-08-12T11:41:33.555Z,101561.28
2022-08-12T11:44:36.170Z,101560.69
2022-08-12T11:46:55.146Z,101547.25
2022-08-12T11:49:31.115Z,101552.53
2022-08-12T11:51:59.893Z,101551.25
2022-08-12T11:54:29.442Z,101545.59
2022-08-12T11:56:59.874Z,101539.34
2022-08-12T12:02:20.152Z,101539.72
2022-08-12T12:04:52.921Z,101537.69
2022-08-12T12:08:38.949Z,101534.69
2022-08-12T12:10:13.955Z,101533.81
2022-08-12T12:12:49.567Z,101532.47
2022-08-12T12:15:25.227Z,101536.97
2022-08-12T12:18:05.112Z,101530.31
2022-08-12T12:20:32.922Z,101534.69
2022-08-12T12:23:01.804Z,101524.03
2022-08-12T12:26:06.482Z,101526.41
2022-08-12T12:28:36.838Z,101531.53
2022-08-12T12:31:15.162Z,101523.50
2022-08-12T12:33:58.020Z,101518.94
2022-08-12T12:36:29.908Z,101508.25
2022-08-12T12:39:00.222Z,101526.72
2022-08-12T12:42:42.141Z,101514.66
2022-08-12T12:44:30.247Z,101508.00
2022-08-12T12:47:28.804Z,101515.59
2022-08-12T12:49:53.932Z,101496.00
2022-08-12T12:52:27.014Z,101487.84
2022-08-12T12:54:55.467Z,101492.09
2022-08-12T12:57:36.075Z,101487.44
2022-08-12T13:00:18.022Z,101483.19
2022-08-12T13:02:54.309Z,101487.59
2022-08-12T13:05:28.273Z,101485.47
2022-08-12T13:08:00.757Z,101476.00
2022-08-12T13:10:36.966Z,101481.16
2022-08-12T13:14:07.706Z,101478.25
2022-08-12T13:15:59.038Z,101483.56
2022-08-12T13:18:28.821Z,101472.38
2022-08-12T13:20:59.692Z,101466.00
2022-08-12T13:23:35.965Z,101466.94
2022-08-12T13:26:07.694Z,101465.44
2022-08-12T13:28:45.628Z,101463.84
2022-08-12T13:31:22.331Z,101467.22
2022-08-12T13:34:34.646Z,101474.34
2022-08-12T13:36:40.989Z,101466.31
2022-08-12T13:39:09.312Z,101469.44
2022-08-12T13:41:37.696Z,101468.06
2022-08-12T13:44:10.735Z,101461.88
2022-08-12T13:46:40.860Z,101463.41
2022-08-12T13:49:11.485Z,101467.53
2022-08-12T13:51:54.224Z,101470.16
2022-08-12T13:54:22.070Z,101460.50
2022-08-12T13:56:51.503Z,101463.75
2022-08-12T13:59:24.633Z,101453.31
2022-08-12T14:01:56.859Z,101450.94
2022-08-12T14:04:24.819Z,101446.31
2022-08-12T14:06:53.995Z,101445.97
2022-08-12T14:09:22.113Z,101435.44
2022-08-12T14:11:59.343Z,101442.34
2022-08-12T14:14:31.284Z,101440.19
2022-08-12T14:17:05.712Z,101449.81
2022-08-12T14:19:48.753Z,101440.03
2022-08-12T14:22:21.488Z,101438.19
2022-08-12T14:24:54.266Z,101437.28
2022-08-12T14:28:03.301Z,101432.66
2022-08-12T14:30:28.797Z,101437.16
2022-08-12T14:32:57.631Z,101436.28
2022-08-12T14:35:25.371Z,101421.47
2022-08-12T14:37:56.169Z,101418.38
2022-08-12T14:40:28.185Z,101426.09
2022-08-12T14:42:57.009Z,101420.06
2022-08-12T14:45:44.584Z,101416.69
2022-08-12T14:48:16.552Z,101433.59
2022-08-12T14:51:03.307Z,101429.78
2022-08-12T14:59:57.068Z,101427.84
2022-08-12T15:02:20.858Z,101423.63
2022-08-12T15:04:56.054Z,101424.13
2022-08-12T15:07:33.319Z,101417.50
2022-08-12T15:10:13.433Z,101422.78
2022-08-12T15:12:41.656Z,101417.13
2022-08-12T15:15:10.466Z,101417.13
2022-08-12T15:17:40.502Z,101409.44
2022-08-12T15:20:32.402Z,101411.25
2022-08-12T15:22:58.101Z,101417.09
2022-08-12T15:25:26.034Z,101417.25
2022-08-12T15:28:03.972Z,101413.75
2022-08-12T15:30:33.861Z,101411.22
2022-08-12T15:33:12.577Z,101415.53
2022-08-12T15:35:52.275Z,101404.50
2022-08-12T15:38:25.304Z,101407.38
2022-08-12T15:40:55.241Z,101403.75
2022-08-12T15:44:15.670Z,101395.47
2022-08-12T15:46:15.146Z,101402.94
2022-08-12T15:48:47.461Z,101395.41
2022-08-12T15:51:58.855Z,101391.50
2022-08-12T15:54:33.104Z,101397.56
2022-08-12T15:57:05.828Z,101389.75
2022-08-12T16:00:04.536Z,101393.41
2022-08-12T16:02:27.132Z,101401.03
2022-08-12T16:04:58.649Z,101396.53
2022-08-12T16:07:32.542Z,101401.81
2022-08-12T16:10:08.304Z,101385.00
2022-08-12T16:12:43.405Z,101390.63
2022-08-12T16:15:24.995Z,101390.78
2022-08-12T16:18:19.521Z,101385.88
2022-08-12T16:20:46.517Z,101383.66
2022-08-12T16:23:36.319Z,101384.03
2022-08-12T16:26:14.183Z,101378.41
2022-08-12T16:28:43.169Z,101379.13
2022-08-12T16:31:18.618Z,101371.72
2022-08-12T16:33:59.108Z,101367.00
2022-08-12T16:36:30.525Z,101366.38
2022-08-12T16:39:01.759Z,101372.00
2022-08-12T16:41:33.521Z,101365.63
2022-08-12T16:44:08.524Z,101356.41
2022-08-12T16:46:37.674Z,101359.69
2022-08-12T16:49:13.146Z,101359.91
2022-08-12T16:51:46.673Z,101346.50
2022-08-12T16:54:16.557Z,101352.88
2022-08-12T16:56:54.513Z,101357.28
2022-08-12T16:59:26.279Z,101349.25
2022-08-12T17:01:59.078Z,101355.78
2022-08-12T17:04:29.114Z,101352.28
2022-08-12T17:06:58.562Z,101353.53
2022-08-12T17:09:27.071Z,101352.94
2022-08-12T17:12:08.900Z,101345.94
2022-08-12T17:14:38.074Z,101350.94
2022-08-12T17:17:18.578Z,101347.19
2022-08-12T17:20:28.643Z,101349.94
2022-08-12T17:22:56.011Z,101355.44
2022-08-12T17:25:25.533Z,101352.06
2022-08-12T17:27:58.977Z,101354.22
2022-08-12T17:30:29.638Z,101348.06
2022-08-12T17:33:02.678Z,101349.22
2022-08-12T17:35:37.269Z,101348.72
2022-08-12T17:38:13.623Z,101348.06
2022-08-12T17:40:43.680Z,101356.84
2022-08-12T17:43:56.784Z,101351.22
2022-08-12T17:46:13.139Z,101346.94
2022-08-12T17:48:54.926Z,101352.59
2022-08-12T17:51:26.429Z,101355.84
2022-08-12T17:54:10.790Z,101348.47
2022-08-12T17:56:43.302Z,101352.72
2022-08-12T17:59:12.331Z,101360.47
2022-08-12T18:01:45.327Z,101360.81
2022-08-12T18:04:22.413Z,101362.81
2022-08-12T18:06:52.016Z,101363.81
2022-08-12T18:09:24.371Z,101366.56
2022-08-12T18:12:11.885Z,101356.06
2022-08-12T18:14:41.487Z,101354.69
2022-08-12T18:17:11.958Z,101359.31
2022-08-12T18:20:05.625Z,101366.94
2022-08-12T18:22:40.905Z,101369.06
2022-08-12T18:26:11.418Z,101366.66
2022-08-12T18:28:11.644Z,101363.41
2022-08-12T18:30:53.014Z,101373.16
2022-08-12T18:33:24.859Z,101373.72
2022-08-12T18:35:55.498Z,101375.09
2022-08-12T18:38:25.756Z,101370.03
2022-08-12T18:41:21.723Z,101377.03
2022-08-12T18:43:59.452Z,101380.25
2022-08-12T18:46:33.223Z,101384.00
2022-08-12T18:49:18.269Z,101383.38
2022-08-12T18:51:55.535Z,101384.59
2022-08-12T18:54:35.672Z,101392.31
2022-08-12T18:57:16.654Z,101387.41
2022-08-12T19:00:06.981Z,101386.31
2022-08-12T19:02:40.654Z,101383.31
2022-08-12T19:05:10.623Z,101391.84
2022-08-12T19:08:00.147Z,101386.81
2022-08-12T19:10:30.444Z,101395.75
2022-08-12T19:13:23.143Z,101408.09
2022-08-12T19:15:53.450Z,101394.91
2022-08-12T19:18:22.120Z,101402.84
2022-08-12T19:20:50.746Z,101391.31
2022-08-12T19:23:21.287Z,101399.00
2022-08-12T19:25:59.582Z,101402.09
2022-08-12T19:28:35.461Z,101390.78
2022-08-12T19:31:55.821Z,101401.31
2022-08-12T19:34:56.480Z,101408.34
2022-08-12T19:37:20.032Z,101397.66
2022-08-12T19:40:09.950Z,101400.84
2022-08-12T19:42:42.662Z,101406.91
2022-08-12T19:45:15.666Z,101402.72
2022-08-12T19:47:44.698Z,101409.53
2022-08-12T19:50:19.661Z,101402.50
2022-08-12T19:52:53.077Z,101414.78
2022-08-12T19:55:23.323Z,101407.75
2022-08-12T19:58:03.101Z,101415.44
2022-08-12T20:00:34.429Z,101412.19
2022-08-12T20:03:04.835Z,101410.63
2022-08-12T20:06:05.216Z,101420.06
2022-08-12T20:08:34.764Z,101417.84
2022-08-12T20:12:13.268Z,101416.31
2022-08-12T20:14:00.702Z,101420.44
2022-08-12T20:16:52.580Z,101416.38
2022-08-12T20:19:52.928Z,101424.09
2022-08-12T20:22:20.345Z,101420.13
2022-08-12T20:24:55.127Z,101424.06
2022-08-12T20:27:53.668Z,101425.34
2022-08-12T20:30:14.222Z,101427.50
2022-08-12T20:32:53.918Z,101425.03
2022-08-12T20:35:24.329Z,101428.78
2022-08-12T20:38:06.659Z,101433.56
2022-08-12T20:40:38.382Z,101433.75
2022-08-12T20:43:08.561Z,101431.13
2022-08-12T20:45:44.665Z,101430.53
2022-08-12T20:48:21.633Z,101428.00
2022-08-12T20:50:53.791Z,101427.22
2022-08-12T20:53:33.083Z,101434.75
2022-08-12T20:56:54.334Z,101429.59
2022-08-12T20:59:47.873Z,101437.09
2022-08-12T21:02:24.145Z,101429.50
2022-08-12T21:05:20.054Z,101437.91
2022-08-12T21:07:51.526Z,101431.06
2022-08-12T21:10:20.744Z,101431.53
2022-08-12T21:12:50.758Z,101444.00
2022-08-12T21:15:30.223Z,101439.69
2022-08-12T21:18:11.593Z,101440.28
2022-08-12T21:20:54.237Z,101444.97
2022-08-12T21:23:23.635Z,101445.97
2022-08-12T21:25:56.102Z,101438.09
2022-08-12T21:28:30.885Z,101435.56
2022-08-12T21:32:37.616Z,101445.03
2022-08-12T21:34:08.145Z,101447.19
2022-08-12T21:36:48.151Z,101443.06
2022-08-12T21:39:20.736Z,101439.81
2022-08-12T21:41:51.924Z,101440.97
2022-08-12T21:44:24.630Z,101444.91
2022-08-12T21:47:20.404Z,101446.16
2022-08-12T21:50:04.086Z,101454.72
2022-08-12T21:52:41.880Z,101457.84
2022-08-12T21:55:17.830Z,101454.59
2022-08-12T21:57:53.241Z,101453.78
2022-08-12T22:00:31.798Z,101460.31
2022-08-12T22:04:01.365Z,101455.09
2022-08-12T22:06:20.342Z,101460.94
2022-08-12T22:09:02.221Z,101452.91
2022-08-12T22:11:42.379Z,101468.69
2022-08-12T22:14:21.282Z,101469.13
2022-08-12T22:16:50.729Z,101476.56
2022-08-12T22:19:19.751Z,101467.53
2022-08-12T22:21:53.354Z,101479.59
2022-08-12T22:24:26.665Z,101470.88
2022-08-12T22:26:56.485Z,101472.09
2022-08-12T22:29:42.383Z,101481.50
2022-08-12T22:32:11.366Z,101481.75
2022-08-12T22:34:40.208Z,101470.91
2022-08-12T22:37:19.831Z,101470.13
2022-08-12T22:39:49.638Z,101473.25
2022-08-12T22:42:37.271Z,101468.06
2022-08-12T22:45:24.842Z,101469.28
2022-08-12T22:47:56.429Z,101469.63
2022-08-12T22:50:28.508Z,101475.44
2022-08-12T22:53:15.165Z,101476.66
2022-08-12T22:55:59.699Z,101461.50
2022-08-12T22:58:35.230Z,101474.41
2022-08-12T23:01:03.649Z,101469.97
2022-08-12T23:03:49.409Z,101470.25
2022-08-12T23:06:19.720Z,101464.22
2022-08-12T23:08:48.551Z,101469.97
2022-08-12T23:11:23.986Z,101468.28
2022-08-12T23:13:56.365Z,101464.03
2022-08-12T23:16:31.134Z,101471.69
2022-08-12T23:19:09.939Z,101457.31
2022-08-12T23:22:05.499Z,101456.59
2022-08-12T23:24:41.059Z,101462.22
2022-08-12T23:27:50.428Z,101465.03
2022-08-12T23:30:24.603Z,101454.34
2022-08-12T23:32:54.753Z,101460.13
2022-08-12T23:35:45.297Z,101464.13
2022-08-12T23:38:24.639Z,101463.38
2022-08-12T23:41:00.827Z,101464.44
2022-08-12T23:43:40.071Z,101466.41
2022-08-12T23:46:09.875Z,101466.66
2022-08-12T23:48:38.430Z,101463.25
2022-08-12T23:51:22.027Z,101468.84
2022-08-12T23:53:53.545Z,101462.75
2022-08-12T23:56:24.107Z,101464.75
2022-08-12T23:58:55.177Z,101461.22
